Time;durP1;ratioP1;P1;durP2;ratioP2;P2;SDS_P1;SDS_P2;PMS_P1;PMS_P2;Temp;Humidity;BMP_temperature;BMP_pressure;BME280_temperature;BME280_humidity;BME280_pressure;Samples;Min_cycle;Max_cycle;Signal;HPM_P1;HPM_P2
2022/04/30 22:04:46;;;;;;;5.37;4.87;;;20.10;36.20;;;;;;5109787;27;20875;-82
2022/04/30 22:07:14;;;;;;;6.23;4.80;;;20.00;36.40;;;;;;5072477;28;20454;-82
2022/04/30 22:09:43;;;;;;;5.60;5.10;;;20.00;36.40;;;;;;5077171;28;20459;-81
2022/04/30 22:12:11;;;;;;;4.50;4.10;;;20.00;36.50;;;;;;5078733;28;20438;-82
2022/04/30 22:14:39;;;;;;;4.53;4.13;;;19.90;36.50;;;;;;5079777;28;20472;-83
2022/04/30 22:17:07;;;;;;;8.67;4.60;;;19.90;36.60;;;;;;5078674;28;20449;-82
2022/04/30 22:19:34;;;;;;;8.47;4.93;;;19.90;36.70;;;;;;5079398;28;20549;-83
2022/04/30 22:22:04;;;;;;;7.00;4.77;;;19.90;36.70;;;;;;5068363;28;20514;-82
2022/04/30 22:24:33;;;;;;;5.43;4.60;;;19.90;36.80;;;;;;5066806;28;20446;-82
2022/04/30 22:27:01;;;;;;;6.97;4.33;;;19.80;36.70;;;;;;5077576;28;20441;-82
2022/04/30 22:29:29;;;;;;;5.33;4.43;;;19.80;36.80;;;;;;5079191;28;20449;-82
2022/04/30 22:31:57;;;;;;;5.00;4.50;;;19.80;36.90;;;;;;5079326;28;20541;-82
2022/04/30 22:34:24;;;;;;;7.70;4.80;;;19.70;36.90;;;;;;5079049;28;20462;-83
2022/04/30 22:36:52;;;;;;;6.00;4.90;;;19.70;36.90;;;;;;5079056;28;20462;-82
2022/04/30 22:42:46;;;;;;;5.77;4.50;;;19.70;37.00;;;;;;5078330;28;20529;-81
2022/04/30 22:44:55;;;;;;;6.60;4.33;;;19.60;37.00;;;;;;5078783;28;20464;-82
2022/04/30 22:47:23;;;;;;;5.30;4.20;;;19.60;37.20;;;;;;5078786;28;20465;-82
2022/04/30 22:49:52;;;;;;;9.20;5.40;;;19.60;37.20;;;;;;5079192;28;20545;-82
2022/04/30 22:52:20;;;;;;;6.50;4.80;;;19.50;37.10;;;;;;5079166;28;20485;-83
2022/04/30 22:54:49;;;;;;;6.13;4.40;;;19.50;37.30;;;;;;5078666;28;20449;-82
2022/04/30 22:57:18;;;;;;;5.13;4.63;;;19.50;37.30;;;;;;5076057;28;20499;-82
2022/04/30 22:59:46;;;;;;;6.23;4.80;;;19.50;37.40;;;;;;5077737;28;20462;-81
2022/04/30 23:02:14;;;;;;;4.83;4.33;;;19.50;37.30;;;;;;5077804;28;20473;-82
2022/04/30 23:04:42;;;;;;;5.93;4.90;;;19.40;37.40;;;;;;5075363;28;20446;-82
2022/04/30 23:07:11;;;;;;;6.90;5.17;;;19.40;37.30;;;;;;5072387;28;20446;-82
2022/04/30 23:09:39;;;;;;;5.43;4.93;;;19.40;37.50;;;;;;5072659;28;20458;-81
2022/04/30 23:12:11;;;;;;;7.70;5.20;;;19.40;37.50;;;;;;5066315;28;20498;-81
2022/04/30 23:14:39;;;;;;;5.83;4.70;;;19.30;37.50;;;;;;5053802;28;20463;-82
2022/04/30 23:17:08;;;;;;;5.30;4.80;;;19.30;37.60;;;;;;5045593;28;20448;-81
2022/04/30 23:19:36;;;;;;;5.43;4.90;;;19.30;37.70;;;;;;5044841;28;20501;-82
2022/04/30 23:22:04;;;;;;;6.87;4.97;;;19.30;37.70;;;;;;5045196;28;20882;-81
2022/04/30 23:24:32;;;;;;;5.40;4.90;;;19.30;37.80;;;;;;5044974;28;20475;-82
2022/04/30 23:27:01;;;;;;;5.40;4.90;;;19.20;37.70;;;;;;5045158;28;20455;-82
2022/04/30 23:29:32;;;;;;;5.63;5.00;;;19.20;37.80;;;;;;5048049;28;20481;-82
2022/04/30 23:32:00;;;;;;;6.70;5.40;;;19.20;37.70;;;;;;5064416;28;20517;-81
2022/04/30 23:34:29;;;;;;;9.00;5.00;;;19.10;37.80;;;;;;5063998;28;20474;-82
2022/04/30 23:36:57;;;;;;;8.10;4.70;;;19.20;37.80;;;;;;5064408;28;20447;-82
2022/04/30 23:39:25;;;;;;;5.60;5.03;;;19.10;37.80;;;;;;5065368;28;20473;-82
2022/04/30 23:41:53;;;;;;;8.17;5.53;;;19.10;37.90;;;;;;5065139;28;20450;-82
2022/04/30 23:44:22;;;;;;;5.97;4.83;;;19.10;38.00;;;;;;5064989;28;20438;-82
2022/04/30 23:46:53;;;;;;;6.63;5.00;;;19.10;38.00;;;;;;5064705;28;20454;-83
2022/04/30 23:49:22;;;;;;;5.00;4.60;;;19.00;38.00;;;;;;5061787;28;20467;-82
2022/04/30 23:51:50;;;;;;;5.90;5.13;;;19.00;38.10;;;;;;5064014;28;20525;-82
2022/04/30 23:54:18;;;;;;;4.77;4.37;;;18.90;38.00;;;;;;5064144;28;20505;-82
2022/04/30 23:56:46;;;;;;;5.77;5.20;;;18.90;38.10;;;;;;5064756;28;20446;-83
2022/04/30 23:59:14;;;;;;;5.07;4.67;;;18.90;38.20;;;;;;5064330;28;20473;-82
